sensor_id;sensor_type;location;lat;lon;timestamp;pressure;altitude;pressure_sealevel;temperature;humidity
43312;BME280;30041;48.300;16.352;2023-03-23T00:01:30;99378.28;;;22.03;42.24
43312;BME280;30041;48.300;16.352;2023-03-23T00:03:56;99379.38;;;22.02;42.60
43312;BME280;30041;48.300;16.352;2023-03-23T00:06:21;99377.97;;;22.00;42.53
43312;BME280;30041;48.300;16.352;2023-03-23T00:08:47;99383.13;;;22.01;42.40
43312;BME280;30041;48.300;16.352;2023-03-23T00:11:17;99384.75;;;22.02;42.44
43312;BME280;30041;48.300;16.352;2023-03-23T00:13:43;99385.25;;;21.99;42.41
43312;BME280;30041;48.300;16.352;2023-03-23T00:16:09;99384.19;;;22.00;42.40
43312;BME280;30041;48.300;16.352;2023-03-23T00:18:35;99376.09;;;22.00;42.22
43312;BME280;30041;48.300;16.352;2023-03-23T00:21:00;99373.63;;;21.98;42.33
43312;BME280;30041;48.300;16.352;2023-03-23T00:23:26;99380.41;;;22.01;42.32
43312;BME280;30041;48.300;16.352;2023-03-23T00:25:55;99379.03;;;21.98;42.40
43312;BME280;30041;48.300;16.352;2023-03-23T00:28:20;99381.72;;;21.98;42.32
43312;BME280;30041;48.300;16.352;2023-03-23T00:30:46;99377.16;;;21.99;42.25
43312;BME280;30041;48.300;16.352;2023-03-23T00:33:11;99377.97;;;22.00;42.20
43312;BME280;30041;48.300;16.352;2023-03-23T00:35:36;99386.09;;;22.00;42.22
43312;BME280;30041;48.300;16.352;2023-03-23T00:38:02;99374.44;;;21.99;42.34
43312;BME280;30041;48.300;16.352;2023-03-23T00:40:27;99374.22;;;22.01;42.40
43312;BME280;30041;48.300;16.352;2023-03-23T00:42:53;99375.28;;;22.00;42.30
43312;BME280;30041;48.300;16.352;2023-03-23T00:45:18;99385.50;;;21.97;42.24
43312;BME280;30041;48.300;16.352;2023-03-23T00:47:44;99377.16;;;21.99;42.18
43312;BME280;30041;48.300;16.352;2023-03-23T00:50:09;99383.03;;;21.96;42.27
43312;BME280;30041;48.300;16.352;2023-03-23T00:52:34;99380.34;;;21.96;42.36
43312;BME280;30041;48.300;16.352;2023-03-23T00:55:00;99368.25;;;21.98;42.30
43312;BME280;30041;48.300;16.352;2023-03-23T00:57:25;99366.63;;;21.97;42.08
43312;BME280;30041;48.300;16.352;2023-03-23T00:59:51;99367.09;;;21.94;42.35
43312;BME280;30041;48.300;16.352;2023-03-23T01:02:16;99368.97;;;21.94;42.40
43312;BME280;30041;48.300;16.352;2023-03-23T01:04:41;99366.28;;;21.94;42.12
43312;BME280;30041;48.300;16.352;2023-03-23T01:07:07;99364.41;;;21.94;42.16
43312;BME280;30041;48.300;16.352;2023-03-23T01:09:32;99360.41;;;21.97;42.12
43312;BME280;30041;48.300;16.352;2023-03-23T01:11:57;99362.53;;;21.95;42.07
43312;BME280;30041;48.300;16.352;2023-03-23T01:14:23;99361.97;;;21.93;42.13
43312;BME280;30041;48.300;16.352;2023-03-23T01:16:48;99353.38;;;21.96;42.25
43312;BME280;30041;48.300;16.352;2023-03-23T01:19:13;99356.06;;;21.96;42.26
43312;BME280;30041;48.300;16.352;2023-03-23T01:21:39;99358.75;;;21.96;42.13
43312;BME280;30041;48.300;16.352;2023-03-23T01:24:04;99363.81;;;21.92;42.17
43312;BME280;30041;48.300;16.352;2023-03-23T01:26:29;99360.31;;;21.92;42.34
43312;BME280;30041;48.300;16.352;2023-03-23T01:28:55;99354.91;;;21.92;42.06
43312;BME280;30041;48.300;16.352;2023-03-23T01:31:22;99359.28;;;21.93;42.20
43312;BME280;30041;48.300;16.352;2023-03-23T01:33:48;99348.22;;;21.94;42.06
43312;BME280;30041;48.300;16.352;2023-03-23T01:36:14;99350.59;;;21.91;42.03
43312;BME280;30041;48.300;16.352;2023-03-23T01:38:40;99355.72;;;21.92;42.13
43312;BME280;30041;48.300;16.352;2023-03-23T01:41:06;99347.41;;;21.94;42.13
43312;BME280;30041;48.300;16.352;2023-03-23T01:43:31;99349.53;;;21.92;42.16
43312;BME280;30041;48.300;16.352;2023-03-23T01:45:57;99352.22;;;21.92;42.10
43312;BME280;30041;48.300;16.352;2023-03-23T01:48:38;99353.31;;;21.91;41.98
43312;BME280;30041;48.300;16.352;2023-03-23T01:51:04;99348.72;;;21.91;42.15
43312;BME280;30041;48.300;16.352;2023-03-23T01:53:38;99341.94;;;21.89;41.95
43312;BME280;30041;48.300;16.352;2023-03-23T01:56:06;99341.13;;;21.88;41.95
43312;BME280;30041;48.300;16.352;2023-03-23T01:58:33;99346.25;;;21.90;42.05
43312;BME280;30041;48.300;16.352;2023-03-23T02:01:01;99348.94;;;21.90;42.09
43312;BME280;30041;48.300;16.352;2023-03-23T02:03:28;99347.56;;;21.87;41.96
43312;BME280;30041;48.300;16.352;2023-03-23T02:05:55;99344.06;;;21.87;42.14
43312;BME280;30041;48.300;16.352;2023-03-23T02:08:22;99342.16;;;21.87;42.05
43312;BME280;30041;48.300;16.352;2023-03-23T02:10:47;99348.38;;;21.88;42.09
43312;BME280;30041;48.300;16.352;2023-03-23T02:13:13;99350.53;;;21.86;41.99
43312;BME280;30041;48.300;16.352;2023-03-23T02:15:49;99347.56;;;21.87;42.11
43312;BME280;30041;48.300;16.352;2023-03-23T02:18:25;99348.38;;;21.88;42.05
43312;BME280;30041;48.300;16.352;2023-03-23T02:23:25;99357.56;;;21.87;42.10
43312;BME280;30041;48.300;16.352;2023-03-23T02:28:55;99354.84;;;21.87;41.83
43312;BME280;30041;48.300;16.352;2023-03-23T02:36:46;99353.47;;;21.84;41.91
43312;BME280;30041;48.300;16.352;2023-03-23T02:39:23;99365.06;;;21.85;42.04
43312;BME280;30041;48.300;16.352;2023-03-23T02:41:51;99353.63;;;21.77;41.84
43312;BME280;30041;48.300;16.352;2023-03-23T02:44:17;99352.91;;;21.82;41.78
43312;BME280;30041;48.300;16.352;2023-03-23T02:46:43;99364.25;;;21.84;41.87
43312;BME280;30041;48.300;16.352;2023-03-23T02:49:09;99359.09;;;21.83;41.74
43312;BME280;30041;48.300;16.352;2023-03-23T02:51:37;99362.03;;;21.81;41.83
43312;BME280;30041;48.300;16.352;2023-03-23T02:54:03;99355.59;;;21.82;41.80
43312;BME280;30041;48.300;16.352;2023-03-23T02:56:30;99367.19;;;21.83;41.84
43312;BME280;30041;48.300;16.352;2023-03-23T02:58:56;99367.69;;;21.80;41.85
43312;BME280;30041;48.300;16.352;2023-03-23T03:03:52;99365.81;;;21.80;41.82
43312;BME280;30041;48.300;16.352;2023-03-23T03:06:27;99370.41;;;21.80;41.76
43312;BME280;30041;48.300;16.352;2023-03-23T03:09:04;99365.56;;;21.82;41.65
43312;BME280;30041;48.300;16.352;2023-03-23T03:11:32;99365.00;;;21.80;41.68
43312;BME280;30041;48.300;16.352;2023-03-23T03:14:02;99358.78;;;21.79;41.93
43312;BME280;30041;48.300;16.352;2023-03-23T03:21:27;99369.81;;;21.77;41.97
43312;BME280;30041;48.300;16.352;2023-03-23T03:23:56;99364.44;;;21.77;41.67
43312;BME280;30041;48.300;16.352;2023-03-23T03:26:23;99363.63;;;21.77;41.71
43312;BME280;30041;48.300;16.352;2023-03-23T03:28:50;99358.78;;;21.79;41.87
43312;BME280;30041;48.300;16.352;2023-03-23T03:31:17;99358.78;;;21.79;41.81
43312;BME280;30041;48.300;16.352;2023-03-23T03:33:43;99352.81;;;21.77;41.85
43312;BME280;30041;48.300;16.352;2023-03-23T03:36:13;99360.09;;;21.76;41.62
43312;BME280;30041;48.300;16.352;2023-03-23T03:38:46;99359.03;;;21.77;41.61
43312;BME280;30041;48.300;16.352;2023-03-23T03:41:12;99368.75;;;21.79;41.74
43312;BME280;30041;48.300;16.352;2023-03-23T03:43:37;99365.47;;;21.76;41.78
43312;BME280;30041;48.300;16.352;2023-03-23T03:46:02;99369.00;;;21.77;41.55
43312;BME280;30041;48.300;16.352;2023-03-23T03:48:28;99360.91;;;21.77;41.53
43312;BME280;30041;48.300;16.352;2023-03-23T03:50:53;99363.63;;;21.77;41.55
43312;BME280;30041;48.300;16.352;2023-03-23T03:53:19;99374.66;;;21.75;41.65
43312;BME280;30041;48.300;16.352;2023-03-23T03:55:44;99373.56;;;21.76;41.71
43312;BME280;30041;48.300;16.352;2023-03-23T03:58:09;99371.72;;;21.77;41.52
43312;BME280;30041;48.300;16.352;2023-03-23T04:00:35;99373.84;;;21.75;41.71
43312;BME280;30041;48.300;16.352;2023-03-23T04:03:00;99368.44;;;21.75;41.69
43312;BME280;30041;48.300;16.352;2023-03-23T04:05:25;99370.28;;;21.74;41.51
43312;BME280;30041;48.300;16.352;2023-03-23T04:07:51;99368.09;;;21.71;41.56
43312;BME280;30041;48.300;16.352;2023-03-23T04:10:16;99368.91;;;21.72;41.80
43312;BME280;30041;48.300;16.352;2023-03-23T04:12:41;99363.28;;;21.73;41.69
43312;BME280;30041;48.300;16.352;2023-03-23T04:15:07;99369.47;;;21.74;41.74
43312;BME280;30041;48.300;16.352;2023-03-23T04:17:32;99369.81;;;21.77;41.53
43312;BME280;30041;48.300;16.352;2023-03-23T04:19:57;99367.13;;;21.77;41.73
43312;BME280;30041;48.300;16.352;2023-03-23T04:22:23;99366.31;;;21.77;41.56
43312;BME280;30041;48.300;16.352;2023-03-23T04:24:48;99369.25;;;21.75;41.54
43312;BME280;30041;48.300;16.352;2023-03-23T04:27:14;99365.25;;;21.78;41.79
43312;BME280;30041;48.300;16.352;2023-03-23T04:29:39;99365.00;;;21.80;41.65
43312;BME280;30041;48.300;16.352;2023-03-23T04:32:04;99363.34;;;21.79;41.86
43312;BME280;30041;48.300;16.352;2023-03-23T04:34:30;99362.31;;;21.80;41.73
43312;BME280;30041;48.300;16.352;2023-03-23T04:36:55;99362.31;;;21.80;41.74
43312;BME280;30041;48.300;16.352;2023-03-23T04:39:21;99371.72;;;21.77;41.69
43312;BME280;30041;48.300;16.352;2023-03-23T04:41:46;99370.41;;;21.80;41.72
43312;BME280;30041;48.300;16.352;2023-03-23T04:44:11;99376.59;;;21.80;41.74
43312;BME280;30041;48.300;16.352;2023-03-23T04:46:37;99379.22;;;21.75;41.96
43312;BME280;30041;48.300;16.352;2023-03-23T04:49:02;99377.81;;;21.55;42.30
43312;BME280;30041;48.300;16.352;2023-03-23T04:51:28;99382.88;;;21.52;42.46
43312;BME280;30041;48.300;16.352;2023-03-23T04:53:53;99379.56;;;21.62;42.81
43312;BME280;30041;48.300;16.352;2023-03-23T04:56:19;99376.59;;;21.63;42.92
43312;BME280;30041;48.300;16.352;2023-03-23T04:58:44;99386.41;;;21.69;42.69
43312;BME280;30041;48.300;16.352;2023-03-23T05:01:10;99378.81;;;21.66;43.00
43312;BME280;30041;48.300;16.352;2023-03-23T05:03:35;99374.81;;;21.69;42.86
43312;BME280;30041;48.300;16.352;2023-03-23T05:06:02;99364.19;;;21.62;42.33
43312;BME280;30041;48.300;16.352;2023-03-23T05:08:27;99381.34;;;21.56;42.75
43312;BME280;30041;48.300;16.352;2023-03-23T05:10:53;99379.72;;;21.55;42.38
43312;BME280;30041;48.300;16.352;2023-03-23T05:13:19;99380.53;;;21.55;43.04
43312;BME280;30041;48.300;16.352;2023-03-23T05:15:44;99385.41;;;21.59;42.89
43312;BME280;30041;48.300;16.352;2023-03-23T05:18:09;99391.66;;;21.59;42.97
43312;BME280;30041;48.300;16.352;2023-03-23T05:20:35;99388.38;;;21.57;43.32
43312;BME280;30041;48.300;16.352;2023-03-23T05:23:00;99393.78;;;21.57;43.34
43312;BME280;30041;48.300;16.352;2023-03-23T05:25:26;99401.03;;;21.56;43.18
43312;BME280;30041;48.300;16.352;2023-03-23T05:27:51;99399.97;;;21.58;43.39
43312;BME280;30041;48.300;16.352;2023-03-23T05:30:20;99406.53;;;21.62;43.25
43312;BME280;30041;48.300;16.352;2023-03-23T05:32:45;99412.50;;;21.64;43.30
43312;BME280;30041;48.300;16.352;2023-03-23T05:35:11;99413.06;;;21.66;43.19
43312;BME280;30041;48.300;16.352;2023-03-23T05:37:37;99403.91;;;21.67;43.17
43312;BME280;30041;48.300;16.352;2023-03-23T05:40:03;99406.03;;;21.65;43.55
43312;BME280;30041;48.300;16.352;2023-03-23T05:42:28;99410.09;;;21.67;43.27
43312;BME280;30041;48.300;16.352;2023-03-23T05:44:53;99415.50;;;21.67;43.27
43312;BME280;30041;48.300;16.352;2023-03-23T05:47:18;99419.84;;;21.68;43.35
43312;BME280;30041;48.300;16.352;2023-03-23T05:49:44;99431.22;;;21.70;43.70
43312;BME280;30041;48.300;16.352;2023-03-23T05:52:09;99421.47;;;21.69;43.67
43312;BME280;30041;48.300;16.352;2023-03-23T05:54:35;99425.56;;;21.72;43.54
43312;BME280;30041;48.300;16.352;2023-03-23T05:57:00;99426.22;;;21.79;43.33
43312;BME280;30041;48.300;16.352;2023-03-23T05:59:25;99425.16;;;21.80;43.55
43312;BME280;30041;48.300;16.352;2023-03-23T06:01:51;99425.41;;;21.79;43.70
43312;BME280;30041;48.300;16.352;2023-03-23T06:04:16;99427.03;;;21.80;43.51
43312;BME280;30041;48.300;16.352;2023-03-23T06:06:42;99418.44;;;21.83;43.57
43312;BME280;30041;48.300;16.352;2023-03-23T06:09:07;99422.47;;;21.80;44.37
43312;BME280;30041;48.300;16.352;2023-03-23T06:11:32;99419.19;;;21.78;44.01
43312;BME280;30041;48.300;16.352;2023-03-23T06:13:58;99420.56;;;21.81;44.08
43312;BME280;30041;48.300;16.352;2023-03-23T06:16:23;99427.84;;;21.80;44.34
43312;BME280;30041;48.300;16.352;2023-03-23T06:18:48;99424.00;;;21.76;44.02
43312;BME280;30041;48.300;16.352;2023-03-23T06:21:14;99431.06;;;21.77;44.17
43312;BME280;30041;48.300;16.352;2023-03-23T06:23:39;99423.50;;;21.62;42.96
43312;BME280;30041;48.300;16.352;2023-03-23T06:26:05;99429.56;;;21.69;43.44
43312;BME280;30041;48.300;16.352;2023-03-23T06:28:31;99430.22;;;21.76;44.01
43312;BME280;30041;48.300;16.352;2023-03-23T06:31:00;99431.28;;;21.75;44.57
43312;BME280;30041;48.300;16.352;2023-03-23T06:33:26;99432.31;;;21.29;41.13
43312;BME280;30041;48.300;16.352;2023-03-23T06:35:51;99432.47;;;21.22;42.13
43312;BME280;30041;48.300;16.352;2023-03-23T06:38:17;99432.66;;;21.32;42.21
43312;BME280;30041;48.300;16.352;2023-03-23T06:40:42;99435.84;;;21.58;42.47
43312;BME280;30041;48.300;16.352;2023-03-23T06:43:07;99439.69;;;21.62;43.14
43312;BME280;30041;48.300;16.352;2023-03-23T06:45:33;99443.78;;;21.65;42.94
43312;BME280;30041;48.300;16.352;2023-03-23T06:47:58;99435.28;;;21.73;42.72
43312;BME280;30041;48.300;16.352;2023-03-23T06:50:23;99437.91;;;21.85;42.55
43312;BME280;30041;48.300;16.352;2023-03-23T06:52:49;99433.50;;;21.79;42.78
43312;BME280;30041;48.300;16.352;2023-03-23T06:55:15;99435.75;;;21.70;42.23
43312;BME280;30041;48.300;16.352;2023-03-23T06:57:41;99431.69;;;21.67;42.51
43312;BME280;30041;48.300;16.352;2023-03-23T07:00:06;99435.44;;;21.66;42.74
43312;BME280;30041;48.300;16.352;2023-03-23T07:02:32;99448.69;;;21.68;42.83
43312;BME280;30041;48.300;16.352;2023-03-23T07:04:57;99450.09;;;21.70;42.58
43312;BME280;30041;48.300;16.352;2023-03-23T07:07:22;99443.97;;;21.75;42.37
43312;BME280;30041;48.300;16.352;2023-03-23T07:09:48;99447.88;;;21.67;42.52
43312;BME280;30041;48.300;16.352;2023-03-23T07:12:13;99462.00;;;21.74;42.44
43312;BME280;30041;48.300;16.352;2023-03-23T07:14:38;99461.84;;;21.64;43.16
43312;BME280;30041;48.300;16.352;2023-03-23T07:17:03;99458.41;;;21.69;43.16
43312;BME280;30041;48.300;16.352;2023-03-23T07:19:29;99460.00;;;21.82;42.92
43312;BME280;30041;48.300;16.352;2023-03-23T07:21:54;99465.19;;;21.71;43.77
43312;BME280;30041;48.300;16.352;2023-03-23T07:24:20;99468.06;;;21.65;43.41
43312;BME280;30041;48.300;16.352;2023-03-23T07:26:45;99456.38;;;21.59;43.93
43312;BME280;30041;48.300;16.352;2023-03-23T07:29:10;99454.94;;;21.56;44.13
43312;BME280;30041;48.300;16.352;2023-03-23T07:31:35;99459.53;;;21.56;44.24
43312;BME280;30041;48.300;16.352;2023-03-23T07:34:01;99461.41;;;21.55;44.60
43312;BME280;30041;48.300;16.352;2023-03-23T07:36:27;99469.75;;;21.54;44.65
43312;BME280;30041;48.300;16.352;2023-03-23T07:38:52;99460.25;;;21.51;44.80
43312;BME280;30041;48.300;16.352;2023-03-23T07:41:18;99459.44;;;21.51;44.93
43312;BME280;30041;48.300;16.352;2023-03-23T07:43:43;99455.69;;;21.52;44.96
43312;BME280;30041;48.300;16.352;2023-03-23T07:46:08;99458.97;;;21.54;44.80
43312;BME280;30041;48.300;16.352;2023-03-23T07:48:34;99456.97;;;21.49;44.99
43312;BME280;30041;48.300;16.352;2023-03-23T07:50:59;99455.38;;;21.48;45.17
43312;BME280;30041;48.300;16.352;2023-03-23T07:53:25;99456.19;;;21.49;45.05
43312;BME280;30041;48.300;16.352;2023-03-23T07:55:50;99452.09;;;21.46;45.21
43312;BME280;30041;48.300;16.352;2023-03-23T07:58:15;99455.59;;;21.47;45.17
43312;BME280;30041;48.300;16.352;2023-03-23T08:00:41;99459.59;;;21.44;45.45
43312;BME280;30041;48.300;16.352;2023-03-23T08:03:06;99460.41;;;21.45;45.49
43312;BME280;30041;48.300;16.352;2023-03-23T08:05:32;99465.22;;;21.43;45.33
43312;BME280;30041;48.300;16.352;2023-03-23T08:07:57;99471.19;;;21.45;45.43
43312;BME280;30041;48.300;16.352;2023-03-23T08:10:22;99470.63;;;21.43;45.43
43312;BME280;30041;48.300;16.352;2023-03-23T08:12:51;99466.88;;;21.44;45.36
43312;BME280;30041;48.300;16.352;2023-03-23T08:15:16;99467.56;;;21.39;45.70
43312;BME280;30041;48.300;16.352;2023-03-23T08:17:42;99469.00;;;21.42;45.64
43312;BME280;30041;48.300;16.352;2023-03-23T08:20:08;99469.81;;;21.42;45.47
43312;BME280;30041;48.300;16.352;2023-03-23T08:22:33;99459.25;;;21.41;45.71
43312;BME280;30041;48.300;16.352;2023-03-23T08:24:59;99458.41;;;21.40;45.60
43312;BME280;30041;48.300;16.352;2023-03-23T08:27:24;99458.63;;;21.39;45.81
43312;BME280;30041;48.300;16.352;2023-03-23T08:29:49;99457.59;;;21.40;45.83
43312;BME280;30041;48.300;16.352;2023-03-23T08:32:14;99461.72;;;21.42;45.55
43312;BME280;30041;48.300;16.352;2023-03-23T08:34:40;99473.19;;;21.38;45.79
43312;BME280;30041;48.300;16.352;2023-03-23T08:37:05;99475.88;;;21.38;45.80
43312;BME280;30041;48.300;16.352;2023-03-23T08:39:30;99467.81;;;21.38;45.95
43312;BME280;30041;48.300;16.352;2023-03-23T08:41:56;99474.22;;;21.36;45.99
43312;BME280;30041;48.300;16.352;2023-03-23T08:44:21;99476.13;;;21.36;45.76
43312;BME280;30041;48.300;16.352;2023-03-23T08:46:47;99472.03;;;21.33;46.05
43312;BME280;30041;48.300;16.352;2023-03-23T08:49:12;99476.38;;;21.34;46.14
43312;BME280;30041;48.300;16.352;2023-03-23T08:51:38;99479.31;;;21.33;45.99
43312;BME280;30041;48.300;16.352;2023-03-23T08:54:03;99474.22;;;21.36;46.01
43312;BME280;30041;48.300;16.352;2023-03-23T08:56:28;99475.53;;;21.34;46.17
43312;BME280;30041;48.300;16.352;2023-03-23T08:58:54;99475.81;;;21.32;46.24
43312;BME280;30041;48.300;16.352;2023-03-23T09:01:19;99478.00;;;21.35;46.00
43312;BME280;30041;48.300;16.352;2023-03-23T09:03:44;99470.16;;;21.34;46.10
43312;BME280;30041;48.300;16.352;2023-03-23T09:06:10;99472.25;;;21.32;46.16
43312;BME280;30041;48.300;16.352;2023-03-23T09:08:35;99459.63;;;21.32;46.20
43312;BME280;30041;48.300;16.352;2023-03-23T09:11:02;99467.72;;;21.32;46.24
43312;BME280;30041;48.300;16.352;2023-03-23T09:13:28;99469.34;;;21.33;46.13
43312;BME280;30041;48.300;16.352;2023-03-23T09:15:53;99466.06;;;21.31;46.19
43312;BME280;30041;48.300;16.352;2023-03-23T09:18:19;99468.16;;;21.29;46.29
43312;BME280;30041;48.300;16.352;2023-03-23T09:20:44;99469.00;;;21.30;46.40
43312;BME280;30041;48.300;16.352;2023-03-23T09:23:10;99471.94;;;21.28;46.37
43312;BME280;30041;48.300;16.352;2023-03-23T09:25:36;99465.75;;;21.28;46.36
43312;BME280;30041;48.300;16.352;2023-03-23T09:28:01;99475.22;;;21.30;46.35
43312;BME280;30041;48.300;16.352;2023-03-23T09:30:28;99469.00;;;21.30;46.40
43312;BME280;30041;48.300;16.352;2023-03-23T09:32:53;99470.63;;;21.31;46.50
43312;BME280;30041;48.300;16.352;2023-03-23T09:35:19;99468.16;;;21.29;46.35
43312;BME280;30041;48.300;16.352;2023-03-23T09:37:44;99471.13;;;21.28;46.31
43312;BME280;30041;48.300;16.352;2023-03-23T09:40:11;99471.13;;;21.28;46.40
43312;BME280;30041;48.300;16.352;2023-03-23T09:45:26;99465.16;;;21.26;46.37
43312;BME280;30041;48.300;16.352;2023-03-23T09:48:03;99464.91;;;21.27;46.35
43312;BME280;30041;48.300;16.352;2023-03-23T09:50:31;99459.50;;;21.27;46.34
43312;BME280;30041;48.300;16.352;2023-03-23T09:53:21;99455.41;;;21.25;46.76
43312;BME280;30041;48.300;16.352;2023-03-23T09:55:47;99461.06;;;21.23;46.50
43312;BME280;30041;48.300;16.352;2023-03-23T10:01:22;99461.63;;;21.25;46.50
43312;BME280;30041;48.300;16.352;2023-03-23T10:03:27;99452.50;;;21.26;46.45
43312;BME280;30041;48.300;16.352;2023-03-23T10:05:55;99449.22;;;21.24;46.43
43312;BME280;30041;48.300;16.352;2023-03-23T10:08:25;99452.50;;;21.26;46.31
43312;BME280;30041;48.300;16.352;2023-03-23T10:13:27;99442.19;;;21.23;46.31
43312;BME280;30041;48.300;16.352;2023-03-23T10:15:57;99437.84;;;21.22;46.54
43312;BME280;30041;48.300;16.352;2023-03-23T10:20:58;99431.44;;;21.23;46.45
43312;BME280;30041;48.300;16.352;2023-03-23T10:28:43;99433.03;;;21.24;46.22
43312;BME280;30041;48.300;16.352;2023-03-23T10:31:10;99429.19;;;21.20;46.33
43312;BME280;30041;48.300;16.352;2023-03-23T10:33:40;99425.44;;;21.21;46.39
43312;BME280;30041;48.300;16.352;2023-03-23T10:38:36;99415.72;;;21.20;46.33
43312;BME280;30041;48.300;16.352;2023-03-23T10:41:13;99408.22;;;21.22;46.31
43312;BME280;30041;48.300;16.352;2023-03-23T10:43:39;99407.63;;;21.20;46.25
43312;BME280;30041;48.300;16.352;2023-03-23T10:48:49;99407.41;;;21.22;46.13
43312;BME280;30041;48.300;16.352;2023-03-23T10:51:17;99402.81;;;21.22;46.26
43312;BME280;30041;48.300;16.352;2023-03-23T10:53:45;99402.81;;;21.22;46.20
43312;BME280;30041;48.300;16.352;2023-03-23T10:56:22;99399.91;;;21.24;46.22
43312;BME280;30041;48.300;16.352;2023-03-23T10:58:48;99403.63;;;21.23;46.25
43312;BME280;30041;48.300;16.352;2023-03-23T11:01:13;99399.91;;;21.24;46.14
43312;BME280;30041;48.300;16.352;2023-03-23T11:03:40;99392.03;;;21.22;46.19
43312;BME280;30041;48.300;16.352;2023-03-23T11:06:07;99392.63;;;21.24;46.14
43312;BME280;30041;48.300;16.352;2023-03-23T11:08:38;99391.22;;;21.22;46.17
43312;BME280;30041;48.300;16.352;2023-03-23T11:11:15;99386.66;;;21.22;46.10
43312;BME280;30041;48.300;16.352;2023-03-23T11:13:44;99393.69;;;21.23;46.00
43312;BME280;30041;48.300;16.352;2023-03-23T11:16:10;99393.69;;;21.23;46.03
43312;BME280;30041;48.300;16.352;2023-03-23T11:18:46;99391.00;;;21.23;46.15
43312;BME280;30041;48.300;16.352;2023-03-23T11:21:12;99385.84;;;21.22;46.04
43312;BME280;30041;48.300;16.352;2023-03-23T11:23:39;99386.66;;;21.22;46.10
43312;BME280;30041;48.300;16.352;2023-03-23T11:26:09;99377.97;;;21.20;46.11
43312;BME280;30041;48.300;16.352;2023-03-23T11:28:37;99385.84;;;21.22;46.20
43312;BME280;30041;48.300;16.352;2023-03-23T11:31:03;99373.66;;;21.19;46.15
43312;BME280;30041;48.300;16.352;2023-03-23T11:33:31;99364.28;;;21.22;46.08
43312;BME280;30041;48.300;16.352;2023-03-23T11:36:00;99363.47;;;21.21;46.11
43312;BME280;30041;48.300;16.352;2023-03-23T11:38:26;99369.91;;;21.20;46.28
43312;BME280;30041;48.300;16.352;2023-03-23T11:40:51;99365.31;;;21.21;46.27
43312;BME280;30041;48.300;16.352;2023-03-23T11:43:18;99356.19;;;21.22;46.17
43312;BME280;30041;48.300;16.352;2023-03-23T11:45:49;99347.28;;;21.21;46.06
43312;BME280;30041;48.300;16.352;2023-03-23T11:50:51;99350.00;;;21.21;46.19
43312;BME280;30041;48.300;16.352;2023-03-23T11:53:25;99344.84;;;21.20;46.11
43312;BME280;30041;48.300;16.352;2023-03-23T11:58:18;99338.88;;;21.18;46.25
43312;BME280;30041;48.300;16.352;2023-03-23T12:06:05;99339.44;;;21.20;46.25
43312;BME280;30041;48.300;16.352;2023-03-23T12:11:16;99329.16;;;21.17;46.10
43312;BME280;30041;48.300;16.352;2023-03-23T12:19:12;99329.72;;;21.19;46.25
43312;BME280;30041;48.300;16.352;2023-03-23T12:21:45;99327.50;;;21.15;46.24
43312;BME280;30041;48.300;16.352;2023-03-23T12:26:54;99327.59;;;21.21;46.16
43312;BME280;30041;48.300;16.352;2023-03-23T12:29:27;99317.06;;;21.19;46.21
43312;BME280;30041;48.300;16.352;2023-03-23T12:42:53;99310.31;;;21.17;46.21
43312;BME280;30041;48.300;16.352;2023-03-23T12:45:21;99312.16;;;21.16;46.08
43312;BME280;30041;48.300;16.352;2023-03-23T12:47:52;99309.72;;;21.14;46.27
43312;BME280;30041;48.300;16.352;2023-03-23T12:50:32;99310.53;;;21.15;46.20
43312;BME280;30041;48.300;16.352;2023-03-23T12:53:03;99310.53;;;21.15;46.15
43312;BME280;30041;48.300;16.352;2023-03-23T12:55:34;99305.94;;;21.15;46.12
43312;BME280;30041;48.300;16.352;2023-03-23T12:58:05;99303.50;;;21.14;46.08
43312;BME280;30041;48.300;16.352;2023-03-23T13:01:17;99294.59;;;21.13;46.24
43312;BME280;30041;48.300;16.352;2023-03-23T13:04:23;99298.94;;;21.14;46.10
43312;BME280;30041;48.300;16.352;2023-03-23T13:08:55;99292.25;;;21.17;46.30
43312;BME280;30041;48.300;16.352;2023-03-23T13:11:35;99289.06;;;21.20;46.00
43312;BME280;30041;48.300;16.352;2023-03-23T13:15:03;99288.81;;;21.22;45.91
43312;BME280;30041;48.300;16.352;2023-03-23T13:22:48;99283.91;;;21.19;46.12
43312;BME280;30041;48.300;16.352;2023-03-23T13:24:57;99277.69;;;21.18;45.99
43312;BME280;30041;48.300;16.352;2023-03-23T13:27:24;99267.72;;;21.19;46.07
43312;BME280;30041;48.300;16.352;2023-03-23T13:29:50;99266.34;;;21.16;46.20
43312;BME280;30041;48.300;16.352;2023-03-23T13:32:17;99262.34;;;21.19;46.03
43312;BME280;30041;48.300;16.352;2023-03-23T13:34:43;99265.38;;;21.22;45.98
43312;BME280;30041;48.300;16.352;2023-03-23T13:39:51;99265.59;;;21.21;46.24
43312;BME280;30041;48.300;16.352;2023-03-23T13:42:18;99263.75;;;21.21;46.12
43312;BME280;30041;48.300;16.352;2023-03-23T13:47:20;99262.91;;;21.21;45.97
43312;BME280;30041;48.300;16.352;2023-03-23T13:49:53;99249.13;;;21.17;46.29
43312;BME280;30041;48.300;16.352;2023-03-23T13:52:53;99247.00;;;21.19;46.11
43312;BME280;30041;48.300;16.352;2023-03-23T13:57:49;99244.88;;;21.21;46.10
43312;BME280;30041;48.300;16.352;2023-03-23T14:00:25;99243.47;;;21.19;46.15
43312;BME280;30041;48.300;16.352;2023-03-23T14:02:51;99244.31;;;21.19;46.21
43312;BME280;30041;48.300;16.352;2023-03-23T14:07:59;99243.75;;;21.17;46.25
43312;BME280;30041;48.300;16.352;2023-03-23T14:10:30;99245.63;;;21.17;46.09
43312;BME280;30041;48.300;16.352;2023-03-23T14:12:56;99237.03;;;21.20;46.06
43312;BME280;30041;48.300;16.352;2023-03-23T14:15:27;99247.47;;;21.16;46.10
43312;BME280;30041;48.300;16.352;2023-03-23T14:17:53;99243.16;;;21.15;46.21
43312;BME280;30041;48.300;16.352;2023-03-23T14:20:31;99247.25;;;21.18;46.13